Time;durP1;ratioP1;P1;durP2;ratioP2;P2;SDS_P1;SDS_P2;PMS_P1;PMS_P2;Temp;Humidity;BMP_temperature;BMP_pressure;BME280_temperature;BME280_humidity;BME280_pressure;Samples;Min_cycle;Max_cycle;Signal;HPM_P1;HPM_P2
2023/08/03 00:01:31;;;;;;;425.73;233.45;;;;;;;13.18;100.00;100002.31;5073414;28;20523;-89
2023/08/03 00:04:00;;;;;;;419.08;230.40;;;;;;;13.11;100.00;99996.09;5073099;28;20043;-89
2023/08/03 00:06:27;;;;;;;421.98;231.77;;;;;;;13.22;100.00;100012.69;5072552;28;20075;-89
2023/08/03 00:08:54;;;;;;;417.40;228.73;;;;;;;13.19;100.00;100016.66;5073271;28;20086;-88
2023/08/03 00:11:20;;;;;;;337.65;187.32;;;;;;;13.16;100.00;100017.91;5073382;28;20032;-89
2023/08/03 00:13:45;;;;;;;332.83;184.75;;;;;;;13.03;100.00;100006.31;5056645;28;20032;-89
2023/08/03 00:16:11;;;;;;;329.73;183.70;;;;;;;13.03;100.00;100017.09;5074135;28;20036;-89
2023/08/03 00:18:36;;;;;;;336.60;185.50;;;;;;;12.87;100.00;99997.59;5038884;28;20040;-88
2023/08/03 00:21:02;;;;;;;336.60;188.90;;;;;;;12.91;100.00;100004.25;5039853;28;20059;-89
2023/08/03 00:23:28;;;;;;;383.77;210.30;;;;;;;12.98;100.00;100012.31;5073200;28;20028;-89
2023/08/03 00:25:53;;;;;;;336.08;188.70;;;;;;;13.02;100.00;100029.78;5072957;28;20044;-89
2023/08/03 00:28:21;;;;;;;342.77;191.35;;;;;;;12.91;100.00;100022.28;5072138;28;20474;-89
2023/08/03 00:30:47;;;;;;;409.15;226.38;;;;;;;12.70;100.00;99990.97;5074221;28;20033;-88
2023/08/03 00:33:12;;;;;;;337.90;188.73;;;;;;;12.95;100.00;100037.03;5039570;28;20128;-88
2023/08/03 00:35:38;;;;;;;336.30;188.90;;;;;;;12.96;100.00;100035.97;5055458;28;20032;-89
2023/08/03 00:38:03;;;;;;;343.25;191.65;;;;;;;12.93;100.00;100044.50;5072689;28;20025;-87
2023/08/03 00:40:29;;;;;;;388.65;213.88;;;;;;;12.87;100.00;100048.03;5039632;28;20032;-88
2023/08/03 00:42:55;;;;;;;412.38;227.75;;;;;;;12.87;100.00;100045.34;5055425;28;20028;-88
2023/08/03 00:45:21;;;;;;;370.75;206.93;;;;;;;12.94;100.00;100043.47;5073421;28;20033;-88
2023/08/03 00:47:46;;;;;;;403.73;222.25;;;;;;;13.02;100.00;100048.66;5055859;28;20372;-88
2023/08/03 00:50:12;;;;;;;397.50;219.35;;;;;;;13.02;100.00;100047.81;5072542;28;20375;-90
2023/08/03 00:52:38;;;;;;;345.05;192.60;;;;;;;13.13;100.00;100057.97;5071995;28;20028;-88
2023/08/03 00:55:04;;;;;;;402.85;224.85;;;;;;;13.16;100.00;100061.09;5072214;28;20129;-88
2023/08/03 00:57:30;;;;;;;391.73;218.55;;;;;;;13.17;100.00;100065.44;5055959;28;20032;-88
2023/08/03 00:59:56;;;;;;;397.00;220.63;;;;;;;13.12;100.00;100070.63;5054639;28;20040;-89
2023/08/03 01:02:22;;;;;;;401.23;223.40;;;;;;;13.07;100.00;100072.28;5072239;28;20471;-91
2023/08/03 01:04:48;;;;;;;351.80;197.65;;;;;;;12.97;100.00;100062.78;5075960;28;20041;-88
2023/08/03 01:07:14;;;;;;;392.85;219.00;;;;;;;13.06;100.00;100073.34;5076046;28;20025;-88
2023/08/03 01:09:39;;;;;;;359.17;199.02;;;;;;;13.10;100.00;100072.72;5075435;28;20044;-88
2023/08/03 01:12:05;;;;;;;399.88;223.27;;;;;;;13.18;100.00;100074.38;5039285;28;20040;-88
2023/08/03 01:14:31;;;;;;;403.67;224.73;;;;;;;13.25;100.00;100087.84;5056280;28;20384;-89
2023/08/03 01:16:57;;;;;;;402.85;224.32;;;;;;;13.30;100.00;100082.69;5055944;28;20025;-89
2023/08/03 01:19:22;;;;;;;338.52;191.80;;;;;;;13.31;100.00;100085.19;5038954;28;20032;-86
2023/08/03 01:21:49;;;;;;;403.85;225.07;;;;;;;13.28;100.00;100084.75;5058811;28;20038;-89
2023/08/03 01:24:15;;;;;;;393.17;218.68;;;;;;;13.26;100.00;100084.09;5054669;28;20040;-88
2023/08/03 01:26:42;;;;;;;416.63;231.30;;;;;;;13.31;100.00;100089.75;5051602;28;20033;-90
2023/08/03 01:29:08;;;;;;;433.42;237.88;;;;;;;13.36;100.00;100098.03;5075377;28;20039;-89
2023/08/03 01:31:34;;;;;;;420.83;231.65;;;;;;;13.42;100.00;100099.94;5058938;28;20406;-88
2023/08/03 01:34:00;;;;;;;353.02;195.18;;;;;;;13.48;100.00;100101.78;5058335;28;20072;-88
2023/08/03 01:36:26;;;;;;;344.60;193.75;;;;;;;13.47;100.00;100104.66;5059032;28;20481;-89
2023/08/03 01:39:10;;;;;;;414.63;231.00;;;;;;;13.39;100.00;100105.75;5058445;28;20104;-89
2023/08/03 01:41:41;;;;;;;426.10;235.80;;;;;;;13.37;100.00;100105.13;5028140;28;20098;-89
2023/08/03 01:44:29;;;;;;;460.80;255.57;;;;;;;13.36;100.00;100107.00;5059323;28;20119;-89
2023/08/03 01:46:57;;;;;;;465.75;258.15;;;;;;;13.15;100.00;100080.19;5042445;28;20025;-89
2023/08/03 01:49:24;;;;;;;452.52;249.65;;;;;;;13.46;100.00;100130.03;5042040;28;20052;-89
2023/08/03 01:51:50;;;;;;;470.13;259.73;;;;;;;13.38;100.00;100104.91;5042291;28;20047;-89
2023/08/03 01:54:15;;;;;;;473.48;261.33;;;;;;;13.20;100.00;100078.53;5074629;28;20104;-89
2023/08/03 01:56:41;;;;;;;471.02;261.17;;;;;;;13.50;100.00;100115.91;5058806;28;20462;-89
2023/08/03 01:59:07;;;;;;;469.38;260.30;;;;;;;13.42;100.00;100102.63;5041650;28;20041;-89
2023/08/03 02:01:32;;;;;;;468.70;256.80;;;;;;;13.60;100.00;100137.06;5075125;28;20029;-89
2023/08/03 02:03:58;;;;;;;469.83;257.75;;;;;;;13.60;100.00;100128.94;5075533;28;20021;-89
2023/08/03 02:06:24;;;;;;;466.52;257.40;;;;;;;13.58;100.00;100134.59;5041816;28;20029;-88
2023/08/03 02:08:49;;;;;;;461.23;254.80;;;;;;;13.59;100.00;100128.13;5058274;28;20036;-88
2023/08/03 02:11:15;;;;;;;472.17;260.05;;;;;;;13.59;100.00;100136.22;5058409;28;20111;-88
2023/08/03 02:13:41;;;;;;;473.13;260.17;;;;;;;13.55;100.00;100131.47;5040993;28;20052;-89
2023/08/03 02:16:10;;;;;;;463.40;255.45;;;;;;;13.57;100.00;100153.69;5074210;28;20107;-90
2023/08/03 02:18:36;;;;;;;463.17;256.00;;;;;;;13.53;100.00;100147.88;5058517;28;20029;-88
2023/08/03 02:21:03;;;;;;;466.23;256.73;;;;;;;13.53;100.00;100147.06;5058344;28;20072;-88
2023/08/03 02:23:29;;;;;;;465.48;256.77;;;;;;;13.60;100.00;100143.31;5040939;28;20467;-88
2023/08/03 02:25:55;;;;;;;459.65;254.70;;;;;;;13.63;100.00;100148.28;5058035;28;20037;-90
2023/08/03 02:28:20;;;;;;;462.15;256.00;;;;;;;13.58;100.00;100148.09;5074369;28;20068;-88
2023/08/03 02:30:46;;;;;;;465.92;257.45;;;;;;;13.68;100.00;100171.13;5058142;28;20032;-89
2023/08/03 02:33:12;;;;;;;469.75;257.85;;;;;;;13.61;100.00;100171.97;5074300;28;20051;-88
2023/08/03 02:35:39;;;;;;;470.13;258.95;;;;;;;13.50;100.00;100158.28;5075651;28;20029;-88
2023/08/03 02:38:08;;;;;;;475.05;262.13;;;;;;;13.53;100.00;100180.28;5074281;28;20104;-90
2023/08/03 02:40:34;;;;;;;446.67;248.43;;;;;;;13.52;100.00;100180.50;5057888;28;20490;-89
2023/08/03 02:43:00;;;;;;;460.65;254.90;;;;;;;13.51;100.00;100179.66;5074769;28;20072;-89
2023/08/03 02:45:25;;;;;;;467.70;257.05;;;;;;;13.48;100.00;100181.97;5075433;28;20024;-88
2023/08/03 02:47:51;;;;;;;467.35;258.40;;;;;;;13.56;100.00;100187.16;5075323;28;20036;-88
2023/08/03 02:50:17;;;;;;;458.77;253.63;;;;;;;13.58;100.00;100194.00;5057791;28;20028;-88
2023/08/03 02:52:43;;;;;;;468.60;258.67;;;;;;;13.61;100.00;100204.38;5073550;28;20439;-88
2023/08/03 02:55:08;;;;;;;465.83;257.00;;;;;;;13.62;100.00;100195.22;5057577;28;20390;-89
2023/08/03 02:57:34;;;;;;;463.25;255.80;;;;;;;13.71;100.00;100203.16;5057435;28;20467;-88
2023/08/03 02:59:59;;;;;;;443.23;244.30;;;;;;;13.67;100.00;100201.91;5057550;28;20489;-89
2023/08/03 03:02:25;;;;;;;460.95;255.30;;;;;;;13.62;100.00;100207.91;5072729;28;20037;-88
2023/08/03 03:04:51;;;;;;;466.80;257.55;;;;;;;13.51;100.00;100200.44;5073944;28;20485;-89
2023/08/03 03:07:16;;;;;;;461.65;254.77;;;;;;;13.47;100.00;100208.16;5074651;28;20406;-88
2023/08/03 03:09:42;;;;;;;466.75;255.63;;;;;;;13.36;100.00;100193.41;5073333;28;20033;-88
2023/08/03 03:12:08;;;;;;;461.92;255.73;;;;;;;13.41;100.00;100217.88;5037225;28;20029;-89
2023/08/03 03:14:36;;;;;;;456.30;253.02;;;;;;;13.42;100.00;100221.44;5037161;28;20029;-88
2023/08/03 03:17:02;;;;;;;447.70;247.23;;;;;;;13.39;100.00;100224.56;5037365;28;20029;-89
2023/08/03 03:19:28;;;;;;;460.52;253.80;;;;;;;13.35;100.00;100229.53;5051735;28;20399;-88
2023/08/03 03:21:54;;;;;;;458.52;253.77;;;;;;;13.32;100.00;100221.03;5073721;28;20089;-88
2023/08/03 03:24:19;;;;;;;456.55;252.90;;;;;;;13.36;100.00;100233.91;5073722;28;20044;-89
2023/08/03 03:26:45;;;;;;;461.95;254.02;;;;;;;13.33;100.00;100231.59;5055185;28;20086;-89
2023/08/03 03:29:11;;;;;;;435.80;241.60;;;;;;;13.32;100.00;100234.53;5032379;28;20036;-88
2023/08/03 03:31:37;;;;;;;444.00;245.27;;;;;;;13.23;100.00;100233.00;5053377;28;20033;-89
2023/08/03 03:34:02;;;;;;;442.45;245.18;;;;;;;13.20;100.00;100229.72;5053016;28;20029;-88
2023/08/03 03:36:28;;;;;;;466.63;259.38;;;;;;;13.16;100.00;100233.84;5053380;28;20438;-88
2023/08/03 03:38:53;;;;;;;443.67;246.20;;;;;;;13.11;100.00;100233.63;5060953;28;20040;-88
2023/08/03 03:41:19;;;;;;;445.33;247.85;;;;;;;13.07;100.00;100242.34;5056688;28;20123;-89
2023/08/03 03:43:45;;;;;;;438.17;242.40;;;;;;;13.12;100.00;100254.19;5040077;28;20433;-89
2023/08/03 03:46:11;;;;;;;441.40;246.75;;;;;;;13.01;100.00;100252.09;5056465;28;20032;-89
2023/08/03 03:48:36;;;;;;;430.13;240.55;;;;;;;12.88;100.00;100243.97;5053184;28;20383;-89
2023/08/03 03:51:02;;;;;;;417.30;235.02;;;;;;;12.72;100.00;100235.19;5044760;28;20356;-89
2023/08/03 03:53:27;;;;;;;428.67;242.02;;;;;;;12.74;100.00;100252.00;5073258;28;20064;-88
2023/08/03 03:55:53;;;;;;;398.17;223.90;;;;;;;12.65;100.00;100241.59;5073444;28;20119;-90
2023/08/03 03:58:19;;;;;;;340.45;192.23;;;;;;;12.71;100.00;100263.22;5072079;28;20028;-90
2023/08/03 04:00:44;;;;;;;399.98;227.38;;;;;;;12.60;100.00;100261.09;5036554;28;20425;-90
2023/08/03 04:03:10;;;;;;;373.00;210.23;;;;;;;12.63;100.00;100267.97;5036838;28;20360;-90
2023/08/03 04:05:37;;;;;;;345.70;196.07;;;;;;;12.66;100.00;100278.34;5037618;28;20079;-89
2023/08/03 04:08:03;;;;;;;342.60;196.60;;;;;;;12.64;100.00;100286.63;5053263;28;20464;-91
2023/08/03 04:10:29;;;;;;;408.85;233.48;;;;;;;12.66;100.00;100295.34;5055675;28;20034;-90
2023/08/03 04:12:54;;;;;;;417.40;236.10;;;;;;;12.55;100.00;100279.75;5040019;28;20048;-90
2023/08/03 04:15:20;;;;;;;415.75;235.45;;;;;;;12.59;100.00;100291.78;5073213;28;20490;-89
2023/08/03 04:17:48;;;;;;;431.40;244.00;;;;;;;12.53;100.00;100282.63;5039979;28;20556;-90
2023/08/03 04:20:15;;;;;;;412.25;232.70;;;;;;;12.64;100.00;100302.81;5055791;28;20028;-90
2023/08/03 04:22:42;;;;;;;400.35;227.00;;;;;;;12.48;100.00;100282.41;5023597;28;20123;-90
2023/08/03 04:25:08;;;;;;;435.48;246.55;;;;;;;12.54;100.00;100305.03;5023816;28;20033;-90
2023/08/03 04:27:33;;;;;;;419.33;237.60;;;;;;;12.56;100.00;100311.06;5039783;28;20363;-90
2023/08/03 04:29:59;;;;;;;429.50;243.57;;;;;;;12.52;100.00;100315.22;5056513;28;20119;-89
2023/08/03 04:32:25;;;;;;;411.30;232.52;;;;;;;12.52;100.00;100323.28;5073325;28;20095;-90
2023/08/03 04:34:50;;;;;;;399.20;227.30;;;;;;;12.50;100.00;100331.56;5073320;28;20135;-90
2023/08/03 04:37:16;;;;;;;424.88;241.38;;;;;;;12.51;100.00;100330.53;5052476;28;20040;-91
2023/08/03 04:39:42;;;;;;;403.73;229.77;;;;;;;12.42;100.00;100323.66;5040605;28;20491;-90
2023/08/03 04:42:07;;;;;;;409.05;232.63;;;;;;;12.44;100.00;100326.16;5041048;28;20083;-90
2023/08/03 04:44:33;;;;;;;409.30;232.50;;;;;;;12.43;100.00;100332.56;5040638;28;20041;-91
2023/08/03 04:46:59;;;;;;;415.10;236.00;;;;;;;12.37;100.00;100330.66;5056138;28;20033;-90
2023/08/03 04:49:25;;;;;;;426.88;242.10;;;;;;;12.25;100.00;100317.75;5056794;28;20033;-91
2023/08/03 04:51:51;;;;;;;435.67;248.45;;;;;;;12.39;100.00;100339.41;5040730;28;20060;-92
2023/08/03 04:54:18;;;;;;;431.40;246.05;;;;;;;12.41;100.00;100348.97;5057166;28;20040;-91
2023/08/03 04:56:43;;;;;;;408.52;232.57;;;;;;;12.37;100.00;100341.47;5057239;28;20158;-91
2023/08/03 04:59:09;;;;;;;413.33;235.40;;;;;;;12.39;100.00;100344.78;5060155;28;20040;-91
2023/08/03 05:01:35;;;;;;;406.17;231.45;;;;;;;12.40;100.00;100349.97;5076872;28;20025;-90
2023/08/03 05:04:00;;;;;;;408.42;233.02;;;;;;;12.39;100.00;100351.00;5076369;28;20486;-90
2023/08/03 05:06:27;;;;;;;407.27;232.05;;;;;;;12.44;100.00;100353.13;5039401;28;20029;-90
2023/08/03 05:08:52;;;;;;;403.73;230.07;;;;;;;12.51;100.00;100370.16;5073729;28;20024;-90
2023/08/03 05:11:18;;;;;;;408.95;232.80;;;;;;;12.52;100.00;100372.66;5076407;28;20115;-91
2023/08/03 05:13:44;;;;;;;408.98;232.10;;;;;;;12.50;100.00;100365.81;5076639;28;20143;-91
2023/08/03 05:16:09;;;;;;;422.02;237.95;;;;;;;12.48;100.00;100368.69;5075786;28;20033;-89
2023/08/03 05:18:35;;;;;;;416.00;237.18;;;;;;;12.52;100.00;100372.66;5075837;28;20387;-92
2023/08/03 05:21:01;;;;;;;417.63;238.45;;;;;;;12.52;100.00;100377.22;5077173;28;20037;-91
2023/08/03 05:23:27;;;;;;;443.23;253.35;;;;;;;12.42;100.00;100366.78;5059555;28;20024;-91
2023/08/03 05:25:56;;;;;;;424.58;244.10;;;;;;;12.51;100.00;100372.84;5026790;28;20490;-90
2023/08/03 05:28:23;;;;;;;386.55;224.43;;;;;;;12.53;100.00;100379.72;5058639;28;20035;-90
2023/08/03 05:30:48;;;;;;;378.73;219.77;;;;;;;12.47;100.00;100369.72;5059608;28;20135;-89
2023/08/03 05:33:14;;;;;;;376.88;219.40;;;;;;;12.56;100.00;100383.06;5075882;28;20024;-90
2023/08/03 05:35:41;;;;;;;371.73;215.90;;;;;;;12.61;100.00;100383.28;5042744;28;20028;-90
2023/08/03 05:38:06;;;;;;;396.08;228.93;;;;;;;12.71;100.00;100400.78;5054745;28;20033;-90
2023/08/03 05:40:32;;;;;;;372.42;215.48;;;;;;;12.76;100.00;100406.41;5055933;28;20040;-89
2023/08/03 05:42:58;;;;;;;386.40;223.27;;;;;;;12.77;100.00;100399.97;5023131;28;20138;-90
2023/08/03 05:45:34;;;;;;;387.75;222.82;;;;;;;12.90;100.00;100398.41;5022826;28;20063;-90
2023/08/03 05:48:01;;;;;;;400.23;231.18;;;;;;;12.83;100.00;100400.22;5071399;28;20105;-90
2023/08/03 05:50:26;;;;;;;386.48;219.77;;;;;;;12.99;100.00;100407.97;5041216;28;20471;-91
2023/08/03 05:52:52;;;;;;;404.33;231.70;;;;;;;12.95;100.00;100404.84;5038879;28;20033;-91
2023/08/03 05:55:18;;;;;;;392.98;224.40;;;;;;;13.05;100.00;100423.38;5022821;28;20060;-89
2023/08/03 05:57:44;;;;;;;393.42;226.75;;;;;;;13.09;100.00;100413.84;5055401;28;20033;-89
2023/08/03 06:00:19;;;;;;;382.48;217.95;;;;;;;13.06;100.00;100419.66;5055651;28;20061;-91
2023/08/03 06:02:45;;;;;;;394.77;225.43;;;;;;;12.93;100.00;100388.03;5056711;28;20041;-90
2023/08/03 06:05:36;;;;;;;382.52;218.15;;;;;;;13.19;100.00;100429.69;5058843;28;20048;-90
2023/08/03 06:08:02;;;;;;;379.63;217.27;;;;;;;13.18;100.00;100431.56;5074812;28;20028;-89
2023/08/03 06:10:28;;;;;;;398.65;227.35;;;;;;;13.02;100.00;100407.59;5075530;28;20033;-90
2023/08/03 06:12:54;;;;;;;390.27;222.95;;;;;;;13.17;100.00;100426.34;5075295;28;20497;-90
2023/08/03 06:15:20;;;;;;;387.92;221.25;;;;;;;13.22;100.00;100444.66;5075064;28;20056;-89
2023/08/03 06:17:45;;;;;;;378.60;213.73;;;;;;;13.24;100.00;100454.22;5054078;28;20033;-89
2023/08/03 06:20:12;;;;;;;387.25;216.35;;;;;;;13.28;100.00;100444.69;5055049;28;20031;-88
2023/08/03 06:22:37;;;;;;;371.83;211.32;;;;;;;13.35;100.00;100450.13;5054918;28;20064;-88
2023/08/03 06:25:07;;;;;;;379.45;215.40;;;;;;;13.37;100.00;100453.47;5054777;28;20075;-90
2023/08/03 06:27:33;;;;;;;377.48;213.85;;;;;;;13.53;100.00;100458.50;5053873;28;20045;-89
2023/08/03 06:29:59;;;;;;;382.13;216.13;;;;;;;13.55;100.00;100445.66;5037847;28;20060;-89
2023/08/03 06:32:28;;;;;;;381.17;214.13;;;;;;;13.44;100.00;100412.97;5054847;28;20422;-89
2023/08/03 06:34:54;;;;;;;383.75;215.82;;;;;;;13.98;100.00;100466.13;5021539;28;20064;-89
2023/08/03 06:37:20;;;;;;;383.52;213.65;;;;;;;14.04;100.00;100447.19;5070926;28;20028;-89
2023/08/03 06:39:49;;;;;;;387.45;215.80;;;;;;;14.28;100.00;100469.25;5054493;28;20047;-88
2023/08/03 06:42:15;;;;;;;401.35;223.20;;;;;;;14.43;100.00;100472.59;5054384;28;20533;-89
2023/08/03 06:44:40;;;;;;;390.80;217.32;;;;;;;14.62;100.00;100487.19;5067995;28;20032;-88
2023/08/03 06:47:06;;;;;;;400.58;221.10;;;;;;;14.90;100.00;100484.25;5057908;28;20070;-89
2023/08/03 06:49:32;;;;;;;408.60;224.35;;;;;;;15.64;100.00;100490.28;5074142;28;20107;-89
2023/08/03 06:51:57;;;;;;;415.20;223.45;;;;;;;15.95;100.00;100494.91;5053601;28;20091;-89
2023/08/03 06:54:23;;;;;;;433.10;234.88;;;;;;;16.20;100.00;100494.16;5070690;28;20035;-89
2023/08/03 06:56:49;;;;;;;420.15;226.50;;;;;;;16.19;100.00;100493.31;5075762;28;20380;-88
2023/08/03 06:59:20;;;;;;;404.45;216.65;;;;;;;16.38;100.00;100509.66;5073613;28;20020;-89
2023/08/03 07:01:48;;;;;;;406.40;215.67;;;;;;;17.17;100.00;100510.03;5058567;28;20028;-88
2023/08/03 07:04:14;;;;;;;411.80;216.82;;;;;;;18.21;100.00;100499.97;5036800;28;20360;-87
2023/08/03 07:06:40;;;;;;;451.73;235.25;;;;;;;19.42;99.93;100511.25;5053632;28;20029;-89
2023/08/03 07:09:05;;;;;;;444.45;228.30;;;;;;;20.05;91.79;100515.00;5037216;28;20044;-88
2023/08/03 07:11:31;;;;;;;464.10;235.88;;;;;;;19.23;92.19;100529.66;5057185;28;20037;-88
2023/08/03 07:13:56;;;;;;;425.90;218.88;;;;;;;18.65;93.95;100527.72;5073360;28;20040;-86
2023/08/03 07:16:23;;;;;;;422.80;217.05;;;;;;;18.41;94.32;100529.56;5072418;28;20032;-88
2023/08/03 07:18:51;;;;;;;433.17;221.30;;;;;;;18.43;94.32;100531.00;5057154;28;20091;-88
2023/08/03 07:21:17;;;;;;;453.35;230.18;;;;;;;19.41;88.66;100536.03;5056621;28;20036;-89
2023/08/03 07:23:42;;;;;;;473.63;239.27;;;;;;;19.48;85.19;100544.94;5040424;28;20090;-88
2023/08/03 07:26:15;;;;;;;462.42;231.38;;;;;;;20.48;81.27;100549.09;5056727;28;20115;-89
2023/08/03 07:28:41;;;;;;;433.70;218.50;;;;;;;20.02;80.54;100545.50;5057232;28;20035;-89
2023/08/03 07:31:15;;;;;;;468.45;235.15;;;;;;;19.51;80.18;100545.28;5069593;28;20063;-87
2023/08/03 07:33:41;;;;;;;460.80;233.98;;;;;;;18.54;82.37;100566.66;5056255;28;20486;-87
2023/08/03 07:36:07;;;;;;;413.90;211.52;;;;;;;17.78;87.51;100566.19;5073123;28;20059;-87
2023/08/03 07:38:32;;;;;;;421.15;213.73;;;;;;;17.68;90.06;100566.75;5056824;28;20043;-88
2023/08/03 07:40:58;;;;;;;422.50;215.13;;;;;;;17.96;87.94;100568.94;5072697;28;20425;-87
2023/08/03 07:43:23;;;;;;;412.13;211.43;;;;;;;17.70;89.79;100578.25;5071984;28;20043;-87
2023/08/03 07:45:49;;;;;;;397.58;205.55;;;;;;;16.80;92.16;100578.69;5056603;28;20036;-87
2023/08/03 07:48:15;;;;;;;302.35;161.95;;;;;;;16.36;95.90;100585.03;5073417;28;20044;-87
2023/08/03 07:50:40;;;;;;;389.98;204.27;;;;;;;15.82;100.00;100598.88;5056770;28;20473;-88
2023/08/03 07:53:06;;;;;;;397.75;209.15;;;;;;;15.79;100.00;100596.56;5072224;28;20079;-88
2023/08/03 07:55:34;;;;;;;317.08;170.90;;;;;;;15.77;100.00;100600.53;5072677;28;20027;-89
2023/08/03 07:58:00;;;;;;;400.00;212.48;;;;;;;15.82;100.00;100611.56;5072130;28;20082;-88
2023/08/03 08:00:26;;;;;;;424.70;224.23;;;;;;;16.04;100.00;100620.25;5054409;28;20032;-87
2023/08/03 08:02:51;;;;;;;413.55;220.20;;;;;;;16.29;100.00;100603.22;5072593;28;20542;-86
2023/08/03 08:05:17;;;;;;;425.65;224.65;;;;;;;16.43;100.00;100621.09;5056235;28;20037;-84
2023/08/03 08:07:45;;;;;;;444.35;235.43;;;;;;;16.43;100.00;100618.38;5038803;28;20385;-85
2023/08/03 08:10:11;;;;;;;423.48;225.70;;;;;;;16.24;100.00;100609.31;5036557;28;20040;-85
2023/08/03 08:12:37;;;;;;;448.98;238.05;;;;;;;16.31;100.00;100628.28;5035588;28;20040;-86
2023/08/03 08:15:04;;;;;;;407.02;215.32;;;;;;;16.14;100.00;100639.63;5036108;28;20029;-85
2023/08/03 08:17:30;;;;;;;409.27;217.00;;;;;;;15.85;100.00;100630.16;5052177;28;20086;-84
2023/08/03 08:19:56;;;;;;;378.98;202.55;;;;;;;15.78;100.00;100642.88;5064041;28;20029;-84
2023/08/03 08:22:22;;;;;;;395.70;211.43;;;;;;;15.91;100.00;100642.84;5039522;28;20128;-85
2023/08/03 08:24:48;;;;;;;406.85;217.48;;;;;;;15.94;100.00;100633.44;5072230;28;20064;-85
2023/08/03 08:27:16;;;;;;;450.10;239.68;;;;;;;15.99;100.00;100647.19;5052894;28;21430;-84
2023/08/03 08:29:46;;;;;;;434.77;231.48;;;;;;;16.09;100.00;100647.56;5037825;28;20106;-85
2023/08/03 08:32:13;;;;;;;415.35;220.05;;;;;;;16.51;100.00;100656.13;5039054;28;20036;-84
2023/08/03 08:34:39;;;;;;;438.25;232.38;;;;;;;16.92;100.00;100650.25;5070891;28;20025;-85
2023/08/03 08:37:05;;;;;;;408.67;214.90;;;;;;;17.40;100.00;100642.53;5049701;28;20086;-84
2023/08/03 08:39:33;;;;;;;445.40;231.93;;;;;;;17.95;100.00;100664.38;5038987;28;20025;-84
2023/08/03 08:42:09;;;;;;;418.02;216.30;;;;;;;18.57;94.00;100645.16;5068947;28;20037;-86
2023/08/03 08:44:39;;;;;;;433.15;224.15;;;;;;;18.42;91.35;100659.19;5038147;28;20032;-84
2023/08/03 08:47:05;;;;;;;440.20;226.82;;;;;;;17.97;93.45;100662.28;5068505;28;20037;-83
2023/08/03 08:49:31;;;;;;;430.88;222.50;;;;;;;17.86;95.22;100663.88;5071935;28;20044;-84
2023/08/03 08:51:59;;;;;;;448.10;231.00;;;;;;;17.79;92.98;100654.94;5070576;28;20083;-85
2023/08/03 08:54:32;;;;;;;451.63;231.25;;;;;;;18.25;90.11;100669.88;5072131;28;20035;-84
2023/08/03 08:56:58;;;;;;;425.42;218.05;;;;;;;18.21;91.32;100671.41;5051770;28;20081;-86
2023/08/03 08:59:23;;;;;;;422.33;217.90;;;;;;;17.81;90.82;100663.72;5035224;28;20037;-85
2023/08/03 09:01:50;;;;;;;422.42;217.85;;;;;;;17.47;94.32;100679.47;5035100;28;20071;-85
2023/08/03 09:04:34;;;;;;;422.77;218.43;;;;;;;16.81;97.05;100669.97;5038635;28;20021;-84
2023/08/03 09:07:02;;;;;;;402.45;209.63;;;;;;;16.37;99.76;100684.38;5037907;28;20043;-83
2023/08/03 09:09:32;;;;;;;367.30;193.25;;;;;;;15.85;100.00;100686.22;5067807;28;20064;-84
2023/08/03 09:11:58;;;;;;;392.20;206.57;;;;;;;15.72;100.00;100697.94;5037788;28;20036;-83
2023/08/03 09:14:31;;;;;;;400.55;212.65;;;;;;;15.75;100.00;100698.34;5050821;28;20033;-86
2023/08/03 09:17:31;;;;;;;412.33;218.88;;;;;;;15.98;100.00;100705.16;5051834;28;20387;-85
2023/08/03 09:19:57;;;;;;;428.90;228.93;;;;;;;16.12;100.00;100690.53;5022310;28;20040;-84
2023/08/03 09:22:24;;;;;;;448.30;239.18;;;;;;;16.26;100.00;100684.00;5071499;28;20494;-84
2023/08/03 09:25:17;;;;;;;424.17;223.95;;;;;;;18.02;100.00;100698.63;5056099;28;20060;-84
2023/08/03 09:27:51;;;;;;;461.35;241.13;;;;;;;18.98;98.97;100692.59;5070195;28;20036;-84
2023/08/03 09:30:18;;;;;;;459.92;237.40;;;;;;;19.69;93.34;100683.44;5042310;28;20037;-83
2023/08/03 09:32:45;;;;;;;436.23;222.98;;;;;;;20.84;79.59;100708.19;5056958;28;20040;-84
2023/08/03 09:35:19;;;;;;;442.52;223.48;;;;;;;22.26;69.62;100725.25;5036854;28;20063;-84
2023/08/03 09:37:47;;;;;;;436.80;218.45;;;;;;;23.06;65.02;100719.31;5043423;28;20032;-84
2023/08/03 09:40:17;;;;;;;441.80;220.27;;;;;;;21.86;65.76;100718.13;5055404;28;20028;-85
2023/08/03 09:42:44;;;;;;;442.27;220.70;;;;;;;20.67;74.36;100723.72;5042350;28;20034;-84
2023/08/03 09:45:13;;;;;;;461.70;229.63;;;;;;;21.02;71.29;100732.59;5042297;28;20455;-85
2023/08/03 09:47:41;;;;;;;458.35;226.65;;;;;;;21.42;67.13;100731.66;5074093;28;20139;-84
2023/08/03 09:50:09;;;;;;;471.63;234.00;;;;;;;20.19;72.11;100737.50;5042211;28;20060;-84
2023/08/03 09:52:46;;;;;;;465.33;230.57;;;;;;;18.88;78.20;100734.00;5022569;28;20444;-85
2023/08/03 09:55:26;;;;;;;442.70;222.10;;;;;;;17.77;87.92;100733.16;5059042;28;20039;-84
2023/08/03 09:58:09;;;;;;;443.80;223.23;;;;;;;17.77;94.39;100722.28;5041767;28;20640;-84
2023/08/03 10:00:34;;;;;;;446.08;225.85;;;;;;;19.55;82.68;100750.16;5075352;28;20032;-84
2023/08/03 10:03:10;;;;;;;479.23;239.77;;;;;;;21.90;71.49;100729.38;5073567;28;20082;-84
2023/08/03 10:05:41;;;;;;;451.95;225.80;;;;;;;22.70;62.94;100754.53;5058091;28;20127;-85
2023/08/03 10:08:40;;;;;;;476.02;235.75;;;;;;;22.84;62.94;100742.13;5058122;28;20045;-85
2023/08/03 10:11:08;;;;;;;481.08;237.57;;;;;;;22.88;60.81;100736.94;5041681;28;20036;-86
2023/08/03 10:13:34;;;;;;;451.98;223.02;;;;;;;22.07;63.47;100759.47;5074148;28;20028;-85
2023/08/03 10:16:02;;;;;;;428.00;212.82;;;;;;;21.60;62.31;100768.06;5056744;28;20031;-85
2023/08/03 10:18:30;;;;;;;438.38;217.25;;;;;;;21.40;64.96;100752.13;5074291;28;20056;-85
2023/08/03 10:20:56;;;;;;;433.70;213.05;;;;;;;21.54;63.23;100737.06;5072901;28;20047;-87
2023/08/03 10:23:24;;;;;;;424.20;209.65;;;;;;;20.97;64.99;100762.56;5040572;28;20049;-86
2023/08/03 10:25:53;;;;;;;427.30;211.25;;;;;;;20.47;67.20;100762.34;5056998;28;20069;-85
2023/08/03 10:28:20;;;;;;;423.63;211.68;;;;;;;20.15;69.55;100736.28;5051802;28;20040;-85
2023/08/03 10:31:05;;;;;;;417.20;207.40;;;;;;;20.35;67.58;100767.81;5023494;28;20040;-84
2023/08/03 10:33:51;;;;;;;428.77;212.33;;;;;;;21.29;66.76;100767.50;5028907;28;20150;-85
2023/08/03 10:36:29;;;;;;;420.33;209.73;;;;;;;21.21;62.41;100768.75;5040789;28;20269;-86
2023/08/03 10:38:58;;;;;;;420.50;209.55;;;;;;;20.64;64.47;100761.41;5056340;28;20135;-85
2023/08/03 10:41:36;;;;;;;409.52;205.68;;;;;;;20.47;65.04;100778.75;5049667;28;20040;-85
2023/08/03 10:44:05;;;;;;;418.45;208.95;;;;;;;20.23;67.39;100777.97;5037087;28;20124;-86
2023/08/03 10:46:31;;;;;;;412.90;205.77;;;;;;;20.05;68.11;100782.47;5057077;28;20024;-84
2023/08/03 10:48:56;;;;;;;415.17;207.43;;;;;;;22.25;62.19;100774.81;5072542;28;20041;-86
2023/08/03 10:51:23;;;;;;;423.63;210.00;;;;;;;22.36;59.78;100766.50;5057059;28;20041;-85